sensor_id;sensor_type;location;lat;lon;timestamp;P1;durP1;ratioP1;P2;durP2;ratioP2
41568;SDS011;27283;52.504;13.358;2023-02-28T00:00:50;7.63;;;4.03;;
41568;SDS011;27283;52.504;13.358;2023-02-28T00:03:24;11.35;;;3.95;;
41568;SDS011;27283;52.504;13.358;2023-02-28T00:05:58;9.27;;;3.95;;
41568;SDS011;27283;52.504;13.358;2023-02-28T00:08:34;9.25;;;3.72;;
41568;SDS011;27283;52.504;13.358;2023-02-28T00:11:09;7.70;;;3.60;;
41568;SDS011;27283;52.504;13.358;2023-02-28T00:13:44;8.40;;;3.78;;
41568;SDS011;27283;52.504;13.358;2023-02-28T00:16:18;7.00;;;3.78;;
41568;SDS011;27283;52.504;13.358;2023-02-28T00:18:53;14.70;;;4.60;;
41568;SDS011;27283;52.504;13.358;2023-02-28T00:21:24;9.32;;;3.88;;
41568;SDS011;27283;52.504;13.358;2023-02-28T00:23:57;11.35;;;4.50;;
41568;SDS011;27283;52.504;13.358;2023-02-28T00:26:31;9.57;;;4.28;;
41568;SDS011;27283;52.504;13.358;2023-02-28T00:29:02;8.90;;;4.20;;
41568;SDS011;27283;52.504;13.358;2023-02-28T00:31:36;10.13;;;4.57;;
41568;SDS011;27283;52.504;13.358;2023-02-28T00:34:07;9.45;;;4.40;;
41568;SDS011;27283;52.504;13.358;2023-02-28T00:36:39;10.70;;;4.65;;
41568;SDS011;27283;52.504;13.358;2023-02-28T00:39:15;10.77;;;4.72;;
41568;SDS011;27283;52.504;13.358;2023-02-28T00:41:49;10.63;;;4.53;;
41568;SDS011;27283;52.504;13.358;2023-02-28T00:44:23;14.18;;;4.60;;
41568;SDS011;27283;52.504;13.358;2023-02-28T00:46:57;11.20;;;4.93;;
41568;SDS011;27283;52.504;13.358;2023-02-28T00:49:29;9.30;;;4.43;;
41568;SDS011;27283;52.504;13.358;2023-02-28T00:52:02;10.10;;;4.80;;
41568;SDS011;27283;52.504;13.358;2023-02-28T00:54:33;11.23;;;4.53;;
41568;SDS011;27283;52.504;13.358;2023-02-28T00:57:10;8.30;;;4.35;;
41568;SDS011;27283;52.504;13.358;2023-02-28T00:59:41;11.35;;;5.07;;
41568;SDS011;27283;52.504;13.358;2023-02-28T01:02:13;11.15;;;5.20;;
41568;SDS011;27283;52.504;13.358;2023-02-28T01:04:48;9.35;;;4.53;;
41568;SDS011;27283;52.504;13.358;2023-02-28T01:07:20;10.65;;;4.55;;
41568;SDS011;27283;52.504;13.358;2023-02-28T01:09:52;12.60;;;4.65;;
41568;SDS011;27283;52.504;13.358;2023-02-28T01:12:27;12.82;;;4.68;;
41568;SDS011;27283;52.504;13.358;2023-02-28T01:14:59;9.18;;;4.68;;
41568;SDS011;27283;52.504;13.358;2023-02-28T01:17:31;10.93;;;4.82;;
41568;SDS011;27283;52.504;13.358;2023-02-28T01:20:03;9.77;;;4.80;;
41568;SDS011;27283;52.504;13.358;2023-02-28T01:22:35;11.75;;;4.90;;
41568;SDS011;27283;52.504;13.358;2023-02-28T01:25:07;9.73;;;5.07;;
41568;SDS011;27283;52.504;13.358;2023-02-28T01:27:42;11.57;;;5.43;;
41568;SDS011;27283;52.504;13.358;2023-02-28T01:30:14;11.38;;;5.15;;
41568;SDS011;27283;52.504;13.358;2023-02-28T01:32:46;10.43;;;4.90;;
41568;SDS011;27283;52.504;13.358;2023-02-28T01:35:21;10.27;;;4.70;;
41568;SDS011;27283;52.504;13.358;2023-02-28T01:37:54;10.15;;;4.90;;
41568;SDS011;27283;52.504;13.358;2023-02-28T01:40:39;13.18;;;5.45;;
41568;SDS011;27283;52.504;13.358;2023-02-28T01:43:16;12.23;;;4.97;;
41568;SDS011;27283;52.504;13.358;2023-02-28T01:45:53;12.63;;;5.32;;
41568;SDS011;27283;52.504;13.358;2023-02-28T01:48:27;10.77;;;5.10;;
41568;SDS011;27283;52.504;13.358;2023-02-28T01:51:04;17.23;;;5.93;;
41568;SDS011;27283;52.504;13.358;2023-02-28T01:53:42;11.35;;;5.22;;
41568;SDS011;27283;52.504;13.358;2023-02-28T01:56:20;11.38;;;5.25;;
41568;SDS011;27283;52.504;13.358;2023-02-28T01:59:00;11.75;;;5.00;;
41568;SDS011;27283;52.504;13.358;2023-02-28T02:01:33;13.07;;;4.95;;
41568;SDS011;27283;52.504;13.358;2023-02-28T02:04:05;10.85;;;5.35;;
41568;SDS011;27283;52.504;13.358;2023-02-28T02:06:40;12.40;;;5.50;;
41568;SDS011;27283;52.504;13.358;2023-02-28T02:09:15;11.50;;;5.20;;
41568;SDS011;27283;52.504;13.358;2023-02-28T02:11:48;10.98;;;5.47;;
41568;SDS011;27283;52.504;13.358;2023-02-28T02:14:30;11.43;;;5.40;;
41568;SDS011;27283;52.504;13.358;2023-02-28T02:17:15;12.77;;;5.63;;
41568;SDS011;27283;52.504;13.358;2023-02-28T02:26:00;13.68;;;5.53;;
41568;SDS011;27283;52.504;13.358;2023-02-28T02:28:53;15.35;;;6.20;;
41568;SDS011;27283;52.504;13.358;2023-02-28T02:32:10;14.80;;;5.75;;
41568;SDS011;27283;52.504;13.358;2023-02-28T02:35:14;13.90;;;5.72;;
41568;SDS011;27283;52.504;13.358;2023-02-28T02:37:57;12.27;;;5.75;;
41568;SDS011;27283;52.504;13.358;2023-02-28T02:40:35;12.90;;;5.53;;
41568;SDS011;27283;52.504;13.358;2023-02-28T02:43:15;13.77;;;5.43;;
41568;SDS011;27283;52.504;13.358;2023-02-28T02:45:52;12.30;;;5.68;;
41568;SDS011;27283;52.504;13.358;2023-02-28T02:48:29;13.98;;;6.07;;
41568;SDS011;27283;52.504;13.358;2023-02-28T02:51:09;11.93;;;5.88;;
41568;SDS011;27283;52.504;13.358;2023-02-28T02:53:47;12.02;;;6.03;;
41568;SDS011;27283;52.504;13.358;2023-02-28T02:56:24;13.25;;;5.75;;
41568;SDS011;27283;52.504;13.358;2023-02-28T02:59:01;11.07;;;5.32;;
41568;SDS011;27283;52.504;13.358;2023-02-28T03:01:37;12.18;;;5.78;;
41568;SDS011;27283;52.504;13.358;2023-02-28T03:04:13;13.00;;;5.65;;
41568;SDS011;27283;52.504;13.358;2023-02-28T03:06:52;13.98;;;5.43;;
41568;SDS011;27283;52.504;13.358;2023-02-28T03:09:25;11.68;;;5.45;;
41568;SDS011;27283;52.504;13.358;2023-02-28T03:11:59;15.50;;;6.20;;
41568;SDS011;27283;52.504;13.358;2023-02-28T03:14:34;13.15;;;6.30;;
41568;SDS011;27283;52.504;13.358;2023-02-28T03:20:27;16.10;;;6.45;;
41568;SDS011;27283;52.504;13.358;2023-02-28T03:23:16;14.40;;;6.03;;
41568;SDS011;27283;52.504;13.358;2023-02-28T03:25:56;12.43;;;6.38;;
41568;SDS011;27283;52.504;13.358;2023-02-28T03:28:36;15.38;;;6.40;;
41568;SDS011;27283;52.504;13.358;2023-02-28T03:31:16;12.18;;;6.10;;
41568;SDS011;27283;52.504;13.358;2023-02-28T03:33:55;13.00;;;6.85;;
41568;SDS011;27283;52.504;13.358;2023-02-28T03:36:33;17.00;;;6.65;;
41568;SDS011;27283;52.504;13.358;2023-02-28T03:39:17;12.90;;;6.30;;
41568;SDS011;27283;52.504;13.358;2023-02-28T03:41:54;13.82;;;6.28;;
41568;SDS011;27283;52.504;13.358;2023-02-28T03:44:32;13.23;;;6.13;;
41568;SDS011;27283;52.504;13.358;2023-02-28T03:47:12;12.18;;;6.00;;
41568;SDS011;27283;52.504;13.358;2023-02-28T03:49:52;13.68;;;6.32;;
41568;SDS011;27283;52.504;13.358;2023-02-28T03:52:30;11.85;;;6.25;;
41568;SDS011;27283;52.504;13.358;2023-02-28T03:55:14;13.60;;;6.15;;
41568;SDS011;27283;52.504;13.358;2023-02-28T03:57:52;12.27;;;6.20;;
41568;SDS011;27283;52.504;13.358;2023-02-28T04:00:31;13.55;;;6.22;;
41568;SDS011;27283;52.504;13.358;2023-02-28T04:03:08;14.27;;;6.55;;
41568;SDS011;27283;52.504;13.358;2023-02-28T04:05:45;12.05;;;6.20;;
41568;SDS011;27283;52.504;13.358;2023-02-28T04:08:24;15.23;;;6.65;;
41568;SDS011;27283;52.504;13.358;2023-02-28T04:10:59;15.30;;;6.63;;
41568;SDS011;27283;52.504;13.358;2023-02-28T04:13:36;13.23;;;6.18;;
41568;SDS011;27283;52.504;13.358;2023-02-28T04:16:07;14.80;;;6.85;;
41568;SDS011;27283;52.504;13.358;2023-02-28T04:18:56;13.70;;;6.78;;
41568;SDS011;27283;52.504;13.358;2023-02-28T04:21:33;12.45;;;6.20;;
41568;SDS011;27283;52.504;13.358;2023-02-28T04:24:10;15.18;;;6.53;;
41568;SDS011;27283;52.504;13.358;2023-02-28T04:26:47;13.73;;;6.68;;
41568;SDS011;27283;52.504;13.358;2023-02-28T04:29:20;14.05;;;6.82;;
41568;SDS011;27283;52.504;13.358;2023-02-28T04:31:54;17.85;;;6.47;;
41568;SDS011;27283;52.504;13.358;2023-02-28T04:34:28;16.33;;;7.00;;
41568;SDS011;27283;52.504;13.358;2023-02-28T04:37:06;13.57;;;6.53;;
41568;SDS011;27283;52.504;13.358;2023-02-28T04:39:42;18.48;;;7.15;;
41568;SDS011;27283;52.504;13.358;2023-02-28T04:42:17;14.07;;;7.03;;
41568;SDS011;27283;52.504;13.358;2023-02-28T04:44:51;15.05;;;6.80;;
41568;SDS011;27283;52.504;13.358;2023-02-28T04:47:22;15.43;;;7.00;;
41568;SDS011;27283;52.504;13.358;2023-02-28T04:49:56;14.25;;;6.82;;
41568;SDS011;27283;52.504;13.358;2023-02-28T04:52:28;12.82;;;6.78;;
41568;SDS011;27283;52.504;13.358;2023-02-28T04:55:00;17.23;;;7.15;;
41568;SDS011;27283;52.504;13.358;2023-02-28T04:57:36;13.88;;;6.93;;
41568;SDS011;27283;52.504;13.358;2023-02-28T05:00:11;19.02;;;7.10;;
41568;SDS011;27283;52.504;13.358;2023-02-28T05:02:45;15.00;;;6.85;;
41568;SDS011;27283;52.504;13.358;2023-02-28T05:05:22;19.30;;;6.85;;
41568;SDS011;27283;52.504;13.358;2023-02-28T05:07:56;19.63;;;7.78;;
41568;SDS011;27283;52.504;13.358;2023-02-28T05:10:28;14.60;;;7.30;;
41568;SDS011;27283;52.504;13.358;2023-02-28T05:13:03;12.25;;;6.63;;
41568;SDS011;27283;52.504;13.358;2023-02-28T05:15:35;14.32;;;6.88;;
41568;SDS011;27283;52.504;13.358;2023-02-28T05:18:08;14.60;;;6.55;;
41568;SDS011;27283;52.504;13.358;2023-02-28T05:20:40;15.57;;;7.35;;
41568;SDS011;27283;52.504;13.358;2023-02-28T05:23:12;13.63;;;6.95;;
41568;SDS011;27283;52.504;13.358;2023-02-28T05:25:45;14.30;;;7.22;;
41568;SDS011;27283;52.504;13.358;2023-02-28T05:28:19;15.18;;;7.30;;
41568;SDS011;27283;52.504;13.358;2023-02-28T05:30:52;16.77;;;7.47;;
41568;SDS011;27283;52.504;13.358;2023-02-28T05:33:23;16.92;;;7.25;;
41568;SDS011;27283;52.504;13.358;2023-02-28T05:35:55;14.88;;;7.88;;
41568;SDS011;27283;52.504;13.358;2023-02-28T05:38:27;17.52;;;7.85;;
41568;SDS011;27283;52.504;13.358;2023-02-28T05:40:59;18.33;;;8.25;;
41568;SDS011;27283;52.504;13.358;2023-02-28T05:43:33;16.92;;;8.30;;
41568;SDS011;27283;52.504;13.358;2023-02-28T05:46:06;18.60;;;8.85;;
41568;SDS011;27283;52.504;13.358;2023-02-28T05:48:40;19.98;;;8.75;;
41568;SDS011;27283;52.504;13.358;2023-02-28T05:51:13;19.10;;;8.40;;
41568;SDS011;27283;52.504;13.358;2023-02-28T05:53:45;18.33;;;8.23;;
41568;SDS011;27283;52.504;13.358;2023-02-28T05:56:18;19.42;;;8.60;;
41568;SDS011;27283;52.504;13.358;2023-02-28T05:58:52;17.65;;;7.93;;
41568;SDS011;27283;52.504;13.358;2023-02-28T06:01:26;16.83;;;8.20;;
41568;SDS011;27283;52.504;13.358;2023-02-28T06:04:04;19.42;;;8.27;;
41568;SDS011;27283;52.504;13.358;2023-02-28T06:06:52;16.05;;;8.07;;
41568;SDS011;27283;52.504;13.358;2023-02-28T06:09:25;16.70;;;7.72;;
41568;SDS011;27283;52.504;13.358;2023-02-28T06:11:57;18.55;;;8.05;;
41568;SDS011;27283;52.504;13.358;2023-02-28T06:14:34;16.88;;;8.30;;
41568;SDS011;27283;52.504;13.358;2023-02-28T06:17:06;19.33;;;9.07;;
41568;SDS011;27283;52.504;13.358;2023-02-28T06:19:38;16.20;;;8.43;;
41568;SDS011;27283;52.504;13.358;2023-02-28T06:22:10;16.50;;;8.98;;
41568;SDS011;27283;52.504;13.358;2023-02-28T06:24:41;18.92;;;8.63;;
41568;SDS011;27283;52.504;13.358;2023-02-28T06:27:13;19.88;;;8.57;;
41568;SDS011;27283;52.504;13.358;2023-02-28T06:29:47;23.00;;;8.60;;
41568;SDS011;27283;52.504;13.358;2023-02-28T06:32:20;17.60;;;8.60;;
41568;SDS011;27283;52.504;13.358;2023-02-28T06:34:51;19.27;;;8.40;;
41568;SDS011;27283;52.504;13.358;2023-02-28T06:37:25;20.65;;;9.40;;
41568;SDS011;27283;52.504;13.358;2023-02-28T06:39:56;26.90;;;8.88;;
41568;SDS011;27283;52.504;13.358;2023-02-28T06:42:28;18.27;;;8.43;;
41568;SDS011;27283;52.504;13.358;2023-02-28T06:45:02;20.65;;;9.73;;
41568;SDS011;27283;52.504;13.358;2023-02-28T06:47:38;24.35;;;10.70;;
41568;SDS011;27283;52.504;13.358;2023-02-28T06:50:11;18.25;;;9.00;;
41568;SDS011;27283;52.504;13.358;2023-02-28T06:52:47;20.45;;;9.55;;
41568;SDS011;27283;52.504;13.358;2023-02-28T06:55:21;21.15;;;10.02;;
41568;SDS011;27283;52.504;13.358;2023-02-28T06:57:53;20.80;;;9.65;;
41568;SDS011;27283;52.504;13.358;2023-02-28T07:00:28;21.60;;;9.35;;
41568;SDS011;27283;52.504;13.358;2023-02-28T07:02:59;22.58;;;9.75;;
41568;SDS011;27283;52.504;13.358;2023-02-28T07:05:31;16.95;;;8.82;;
41568;SDS011;27283;52.504;13.358;2023-02-28T07:08:03;17.92;;;8.13;;
41568;SDS011;27283;52.504;13.358;2023-02-28T07:10:36;17.05;;;8.55;;
41568;SDS011;27283;52.504;13.358;2023-02-28T07:13:09;18.90;;;8.38;;
41568;SDS011;27283;52.504;13.358;2023-02-28T07:15:43;17.80;;;8.38;;
41568;SDS011;27283;52.504;13.358;2023-02-28T07:18:15;17.25;;;8.57;;
41568;SDS011;27283;52.504;13.358;2023-02-28T07:20:47;21.42;;;8.93;;
41568;SDS011;27283;52.504;13.358;2023-02-28T07:23:18;19.73;;;8.93;;
41568;SDS011;27283;52.504;13.358;2023-02-28T07:25:51;20.15;;;8.63;;
41568;SDS011;27283;52.504;13.358;2023-02-28T07:28:22;17.08;;;9.07;;
41568;SDS011;27283;52.504;13.358;2023-02-28T07:31:02;16.60;;;8.32;;
41568;SDS011;27283;52.504;13.358;2023-02-28T07:33:35;20.20;;;8.10;;
41568;SDS011;27283;52.504;13.358;2023-02-28T07:36:08;19.00;;;8.48;;
41568;SDS011;27283;52.504;13.358;2023-02-28T07:38:43;10.43;;;5.70;;
41568;SDS011;27283;52.504;13.358;2023-02-28T07:41:18;14.55;;;6.93;;
41568;SDS011;27283;52.504;13.358;2023-02-28T07:43:55;17.52;;;6.93;;
41568;SDS011;27283;52.504;13.358;2023-02-28T07:46:30;8.90;;;4.28;;
41568;SDS011;27283;52.504;13.358;2023-02-28T07:49:04;9.05;;;3.92;;
41568;SDS011;27283;52.504;13.358;2023-02-28T07:51:36;5.88;;;3.30;;
41568;SDS011;27283;52.504;13.358;2023-02-28T07:54:08;5.35;;;3.42;;
41568;SDS011;27283;52.504;13.358;2023-02-28T07:56:39;6.07;;;2.90;;
41568;SDS011;27283;52.504;13.358;2023-02-28T07:59:11;8.20;;;3.20;;
41568;SDS011;27283;52.504;13.358;2023-02-28T08:01:46;7.25;;;2.80;;
41568;SDS011;27283;52.504;13.358;2023-02-28T08:04:18;9.82;;;3.67;;
41568;SDS011;27283;52.504;13.358;2023-02-28T08:06:49;9.27;;;4.03;;
41568;SDS011;27283;52.504;13.358;2023-02-28T08:09:22;11.82;;;4.60;;
41568;SDS011;27283;52.504;13.358;2023-02-28T08:11:53;8.93;;;4.80;;
41568;SDS011;27283;52.504;13.358;2023-02-28T08:14:25;11.65;;;4.88;;
41568;SDS011;27283;52.504;13.358;2023-02-28T08:16:58;11.35;;;4.32;;
41568;SDS011;27283;52.504;13.358;2023-02-28T08:19:31;9.65;;;4.80;;
41568;SDS011;27283;52.504;13.358;2023-02-28T08:22:02;12.90;;;4.60;;
41568;SDS011;27283;52.504;13.358;2023-02-28T08:24:34;10.00;;;4.28;;
41568;SDS011;27283;52.504;13.358;2023-02-28T08:27:05;7.78;;;4.10;;
41568;SDS011;27283;52.504;13.358;2023-02-28T08:29:36;8.52;;;4.43;;
41568;SDS011;27283;52.504;13.358;2023-02-28T08:32:11;7.05;;;3.30;;
41568;SDS011;27283;52.504;13.358;2023-02-28T08:34:57;6.40;;;4.00;;
41568;SDS011;27283;52.504;13.358;2023-02-28T08:37:28;5.63;;;3.20;;
41568;SDS011;27283;52.504;13.358;2023-02-28T08:40:00;5.13;;;2.88;;
41568;SDS011;27283;52.504;13.358;2023-02-28T08:42:32;8.23;;;2.92;;
41568;SDS011;27283;52.504;13.358;2023-02-28T08:45:05;7.72;;;2.92;;
41568;SDS011;27283;52.504;13.358;2023-02-28T08:47:40;4.30;;;2.30;;
41568;SDS011;27283;52.504;13.358;2023-02-28T08:50:12;4.82;;;2.35;;
41568;SDS011;27283;52.504;13.358;2023-02-28T08:52:44;4.93;;;2.70;;
41568;SDS011;27283;52.504;13.358;2023-02-28T08:55:17;6.53;;;2.90;;
41568;SDS011;27283;52.504;13.358;2023-02-28T08:57:48;6.00;;;2.38;;
41568;SDS011;27283;52.504;13.358;2023-02-28T09:00:21;3.63;;;2.35;;
41568;SDS011;27283;52.504;13.358;2023-02-28T09:02:57;6.10;;;2.83;;
41568;SDS011;27283;52.504;13.358;2023-02-28T09:05:29;7.97;;;2.90;;
41568;SDS011;27283;52.504;13.358;2023-02-28T09:08:01;4.75;;;2.45;;
41568;SDS011;27283;52.504;13.358;2023-02-28T09:10:34;3.92;;;2.45;;
41568;SDS011;27283;52.504;13.358;2023-02-28T09:13:06;10.02;;;3.20;;
41568;SDS011;27283;52.504;13.358;2023-02-28T09:15:38;5.93;;;2.60;;
41568;SDS011;27283;52.504;13.358;2023-02-28T09:18:13;5.65;;;2.42;;
41568;SDS011;27283;52.504;13.358;2023-02-28T09:20:45;15.63;;;3.20;;
41568;SDS011;27283;52.504;13.358;2023-02-28T09:23:18;31.77;;;4.43;;
41568;SDS011;27283;52.504;13.358;2023-02-28T09:25:51;22.70;;;3.45;;
41568;SDS011;27283;52.504;13.358;2023-02-28T09:28:24;10.80;;;3.03;;
41568;SDS011;27283;52.504;13.358;2023-02-28T09:30:56;5.90;;;2.40;;
41568;SDS011;27283;52.504;13.358;2023-02-28T09:33:31;8.38;;;2.75;;
41568;SDS011;27283;52.504;13.358;2023-02-28T09:36:04;5.95;;;2.85;;
41568;SDS011;27283;52.504;13.358;2023-02-28T09:38:37;4.95;;;2.60;;
41568;SDS011;27283;52.504;13.358;2023-02-28T09:41:13;6.38;;;2.80;;
41568;SDS011;27283;52.504;13.358;2023-02-28T09:43:47;5.85;;;2.50;;
41568;SDS011;27283;52.504;13.358;2023-02-28T09:46:28;4.72;;;2.60;;
41568;SDS011;27283;52.504;13.358;2023-02-28T09:49:10;3.85;;;2.60;;
41568;SDS011;27283;52.504;13.358;2023-02-28T09:51:50;6.30;;;2.80;;
41568;SDS011;27283;52.504;13.358;2023-02-28T09:54:28;8.52;;;3.28;;
41568;SDS011;27283;52.504;13.358;2023-02-28T09:57:05;7.32;;;3.15;;
41568;SDS011;27283;52.504;13.358;2023-02-28T09:59:41;8.40;;;3.00;;
41568;SDS011;27283;52.504;13.358;2023-02-28T10:02:37;4.20;;;2.25;;
41568;SDS011;27283;52.504;13.358;2023-02-28T10:05:30;4.28;;;2.30;;
41568;SDS011;27283;52.504;13.358;2023-02-28T10:08:12;5.10;;;2.30;;
41568;SDS011;27283;52.504;13.358;2023-02-28T10:10:50;5.40;;;2.70;;
41568;SDS011;27283;52.504;13.358;2023-02-28T10:13:26;5.82;;;2.40;;
41568;SDS011;27283;52.504;13.358;2023-02-28T10:16:05;5.20;;;2.50;;
41568;SDS011;27283;52.504;13.358;2023-02-28T10:18:41;6.25;;;2.60;;
41568;SDS011;27283;52.504;13.358;2023-02-28T10:21:21;7.35;;;2.75;;
41568;SDS011;27283;52.504;13.358;2023-02-28T10:24:01;5.85;;;3.03;;
41568;SDS011;27283;52.504;13.358;2023-02-28T10:26:36;5.68;;;2.67;;
41568;SDS011;27283;52.504;13.358;2023-02-28T10:29:08;6.15;;;2.80;;
41568;SDS011;27283;52.504;13.358;2023-02-28T10:31:41;5.82;;;2.90;;
41568;SDS011;27283;52.504;13.358;2023-02-28T10:34:14;5.75;;;2.88;;
41568;SDS011;27283;52.504;13.358;2023-02-28T10:36:48;5.05;;;2.83;;
41568;SDS011;27283;52.504;13.358;2023-02-28T10:39:34;4.68;;;2.75;;
41568;SDS011;27283;52.504;13.358;2023-02-28T10:42:18;5.22;;;2.92;;
41568;SDS011;27283;52.504;13.358;2023-02-28T10:45:09;7.10;;;3.33;;
41568;SDS011;27283;52.504;13.358;2023-02-28T10:47:51;7.53;;;2.90;;
41568;SDS011;27283;52.504;13.358;2023-02-28T10:50:27;6.80;;;3.60;;
41568;SDS011;27283;52.504;13.358;2023-02-28T10:53:21;8.13;;;3.03;;
41568;SDS011;27283;52.504;13.358;2023-02-28T10:56:14;5.03;;;3.00;;
41568;SDS011;27283;52.504;13.358;2023-02-28T10:58:50;6.03;;;2.97;;
41568;SDS011;27283;52.504;13.358;2023-02-28T11:01:24;4.90;;;2.53;;
41568;SDS011;27283;52.504;13.358;2023-02-28T11:04:16;7.45;;;2.90;;
41568;SDS011;27283;52.504;13.358;2023-02-28T11:06:56;4.68;;;2.80;;
41568;SDS011;27283;52.504;13.358;2023-02-28T11:09:32;10.30;;;3.00;;
41568;SDS011;27283;52.504;13.358;2023-02-28T11:12:07;5.68;;;3.03;;
41568;SDS011;27283;52.504;13.358;2023-02-28T11:14:52;5.47;;;2.72;;
41568;SDS011;27283;52.504;13.358;2023-02-28T11:17:27;4.82;;;2.80;;
41568;SDS011;27283;52.504;13.358;2023-02-28T11:20:02;4.05;;;2.42;;
41568;SDS011;27283;52.504;13.358;2023-02-28T11:22:43;4.22;;;2.50;;
41568;SDS011;27283;52.504;13.358;2023-02-28T11:25:23;7.88;;;2.97;;
41568;SDS011;27283;52.504;13.358;2023-02-28T11:27:58;6.55;;;2.95;;
41568;SDS011;27283;52.504;13.358;2023-02-28T11:30:35;5.78;;;2.92;;
41568;SDS011;27283;52.504;13.358;2023-02-28T11:35:57;5.53;;;2.80;;
41568;SDS011;27283;52.504;13.358;2023-02-28T11:38:32;7.22;;;3.10;;
41568;SDS011;27283;52.504;13.358;2023-02-28T11:41:33;7.50;;;3.10;;
41568;SDS011;27283;52.504;13.358;2023-02-28T11:44:28;8.30;;;3.28;;
41568;SDS011;27283;52.504;13.358;2023-02-28T11:47:18;10.02;;;3.40;;
41568;SDS011;27283;52.504;13.358;2023-02-28T11:53:18;8.82;;;3.45;;
41568;SDS011;27283;52.504;13.358;2023-02-28T11:56:12;6.63;;;3.25;;
41568;SDS011;27283;52.504;13.358;2023-02-28T11:59:12;5.55;;;3.30;;
41568;SDS011;27283;52.504;13.358;2023-02-28T12:02:03;6.43;;;3.35;;
41568;SDS011;27283;52.504;13.358;2023-02-28T12:06:17;6.50;;;3.30;;
41568;SDS011;27283;52.504;13.358;2023-02-28T12:10:20;9.07;;;3.70;;
41568;SDS011;27283;52.504;13.358;2023-02-28T12:14:09;8.45;;;3.65;;
41568;SDS011;27283;52.504;13.358;2023-02-28T12:17:46;9.65;;;3.70;;
41568;SDS011;27283;52.504;13.358;2023-02-28T12:20:29;7.43;;;3.72;;
41568;SDS011;27283;52.504;13.358;2023-02-28T12:23:14;5.60;;;3.45;;
41568;SDS011;27283;52.504;13.358;2023-02-28T12:26:00;10.35;;;3.97;;
41568;SDS011;27283;52.504;13.358;2023-02-28T12:28:40;5.68;;;3.78;;
41568;SDS011;27283;52.504;13.358;2023-02-28T12:31:19;8.57;;;4.00;;
41568;SDS011;27283;52.504;13.358;2023-02-28T12:37:01;7.47;;;3.55;;
41568;SDS011;27283;52.504;13.358;2023-02-28T12:39:39;7.25;;;3.83;;
41568;SDS011;27283;52.504;13.358;2023-02-28T12:42:19;7.43;;;3.80;;
41568;SDS011;27283;52.504;13.358;2023-02-28T12:44:59;7.57;;;3.70;;
41568;SDS011;27283;52.504;13.358;2023-02-28T12:47:42;7.20;;;3.40;;
41568;SDS011;27283;52.504;13.358;2023-02-28T12:50:30;8.35;;;3.97;;
41568;SDS011;27283;52.504;13.358;2023-02-28T12:53:53;9.68;;;3.83;;
41568;SDS011;27283;52.504;13.358;2023-02-28T12:56:35;6.85;;;3.70;;
41568;SDS011;27283;52.504;13.358;2023-02-28T12:59:18;8.40;;;4.05;;
41568;SDS011;27283;52.504;13.358;2023-02-28T13:02:02;9.10;;;3.95;;
41568;SDS011;27283;52.504;13.358;2023-02-28T13:11:02;7.10;;;3.97;;
41568;SDS011;27283;52.504;13.358;2023-02-28T13:13:47;7.07;;;3.50;;
41568;SDS011;27283;52.504;13.358;2023-02-28T13:16:28;6.00;;;3.45;;
41568;SDS011;27283;52.504;13.358;2023-02-28T13:19:27;5.78;;;3.47;;
41568;SDS011;27283;52.504;13.358;2023-02-28T13:22:03;7.57;;;3.60;;
41568;SDS011;27283;52.504;13.358;2023-02-28T13:24:39;7.18;;;3.30;;
41568;SDS011;27283;52.504;13.358;2023-02-28T13:33:24;8.52;;;3.40;;
41568;SDS011;27283;52.504;13.358;2023-02-28T13:36:12;6.82;;;3.70;;
41568;SDS011;27283;52.504;13.358;2023-02-28T13:38:58;8.82;;;3.58;;
41568;SDS011;27283;52.504;13.358;2023-02-28T13:41:45;7.07;;;3.58;;
41568;SDS011;27283;52.504;13.358;2023-02-28T13:44:22;7.80;;;3.42;;
41568;SDS011;27283;52.504;13.358;2023-02-28T13:49:55;6.38;;;3.30;;
41568;SDS011;27283;52.504;13.358;2023-02-28T13:52:48;7.60;;;3.60;;
41568;SDS011;27283;52.504;13.358;2023-02-28T13:55:32;8.07;;;3.40;;
41568;SDS011;27283;52.504;13.358;2023-02-28T13:58:10;6.78;;;3.25;;
41568;SDS011;27283;52.504;13.358;2023-02-28T14:01:05;7.75;;;3.60;;
41568;SDS011;27283;52.504;13.358;2023-02-28T14:03:55;6.72;;;3.75;;
41568;SDS011;27283;52.504;13.358;2023-02-28T14:06:58;5.82;;;3.58;;
41568;SDS011;27283;52.504;13.358;2023-02-28T14:09:32;7.97;;;3.58;;
41568;SDS011;27283;52.504;13.358;2023-02-28T14:15:36;6.85;;;3.60;;
41568;SDS011;27283;52.504;13.358;2023-02-28T14:18:20;5.60;;;3.45;;
41568;SDS011;27283;52.504;13.358;2023-02-28T14:21:10;7.78;;;3.80;;
41568;SDS011;27283;52.504;13.358;2023-02-28T14:30:11;8.50;;;3.50;;
41568;SDS011;27283;52.504;13.358;2023-02-28T14:33:23;6.85;;;3.60;;
41568;SDS011;27283;52.504;13.358;2023-02-28T14:36:13;7.55;;;3.25;;
41568;SDS011;27283;52.504;13.358;2023-02-28T14:38:50;6.88;;;3.17;;
41568;SDS011;27283;52.504;13.358;2023-02-28T14:41:27;9.05;;;3.70;;
41568;SDS011;27283;52.504;13.358;2023-02-28T14:44:12;9.20;;;3.47;;
41568;SDS011;27283;52.504;13.358;2023-02-28T14:46:48;6.20;;;3.25;;
41568;SDS011;27283;52.504;13.358;2023-02-28T14:49:24;8.48;;;3.58;;
41568;SDS011;27283;52.504;13.358;2023-02-28T14:52:03;7.63;;;3.10;;
41568;SDS011;27283;52.504;13.358;2023-02-28T14:54:39;7.28;;;3.50;;
41568;SDS011;27283;52.504;13.358;2023-02-28T14:57:20;7.55;;;3.42;;
41568;SDS011;27283;52.504;13.358;2023-02-28T14:59:57;7.78;;;3.70;;
41568;SDS011;27283;52.504;13.358;2023-02-28T15:02:34;7.25;;;4.00;;
41568;SDS011;27283;52.504;13.358;2023-02-28T15:05:19;7.55;;;3.50;;
41568;SDS011;27283;52.504;13.358;2023-02-28T15:08:02;7.35;;;3.58;;
41568;SDS011;27283;52.504;13.358;2023-02-28T15:10:37;7.03;;;3.15;;
41568;SDS011;27283;52.504;13.358;2023-02-28T15:13:12;7.40;;;3.58;;
41568;SDS011;27283;52.504;13.358;2023-02-28T15:15:46;8.23;;;3.50;;
41568;SDS011;27283;52.504;13.358;2023-02-28T15:18:31;6.65;;;3.65;;
41568;SDS011;27283;52.504;13.358;2023-02-28T15:21:14;6.07;;;3.17;;
41568;SDS011;27283;52.504;13.358;2023-02-28T15:23:49;7.85;;;3.53;;
41568;SDS011;27283;52.504;13.358;2023-02-28T15:26:26;8.18;;;3.60;;
41568;SDS011;27283;52.504;13.358;2023-02-28T15:29:03;7.22;;;3.53;;
41568;SDS011;27283;52.504;13.358;2023-02-28T15:31:40;6.90;;;3.30;;
41568;SDS011;27283;52.504;13.358;2023-02-28T15:34:28;7.32;;;3.50;;
41568;SDS011;27283;52.504;13.358;2023-02-28T15:37:30;6.75;;;3.58;;
41568;SDS011;27283;52.504;13.358;2023-02-28T15:40:12;7.45;;;3.47;;
41568;SDS011;27283;52.504;13.358;2023-02-28T15:43:00;7.65;;;3.28;;
41568;SDS011;27283;52.504;13.358;2023-02-28T15:45:39;7.35;;;4.03;;
41568;SDS011;27283;52.504;13.358;2023-02-28T15:48:18;9.45;;;3.58;;
41568;SDS011;27283;52.504;13.358;2023-02-28T15:50:53;7.20;;;3.42;;
41568;SDS011;27283;52.504;13.358;2023-02-28T15:53:31;7.47;;;4.07;;
41568;SDS011;27283;52.504;13.358;2023-02-28T15:56:20;6.75;;;3.47;;
41568;SDS011;27283;52.504;13.358;2023-02-28T15:58:57;9.43;;;4.22;;
41568;SDS011;27283;52.504;13.358;2023-02-28T16:01:32;7.88;;;3.90;;
41568;SDS011;27283;52.504;13.358;2023-02-28T16:04:06;7.20;;;3.90;;
41568;SDS011;27283;52.504;13.358;2023-02-28T16:06:46;7.22;;;3.80;;
41568;SDS011;27283;52.504;13.358;2023-02-28T16:09:22;7.80;;;3.90;;
41568;SDS011;27283;52.504;13.358;2023-02-28T16:11:55;7.28;;;3.83;;
41568;SDS011;27283;52.504;13.358;2023-02-28T16:14:33;6.63;;;3.92;;
41568;SDS011;27283;52.504;13.358;2023-02-28T16:17:07;9.65;;;4.45;;